createdAt,value
2023-01-30T00:00:23.966Z,11.67
2023-01-30T00:03:27.152Z,10.55
2023-01-30T00:06:29.463Z,9.30
2023-01-30T00:09:31.982Z,11.70
2023-01-30T00:12:34.265Z,10.05
2023-01-30T00:15:37.143Z,10.80
2023-01-30T00:18:40.722Z,9.30
2023-01-30T00:21:43.194Z,10.57
2023-01-30T00:24:45.485Z,10.57
2023-01-30T00:27:48.037Z,11.32
2023-01-30T00:30:54.545Z,11.10
2023-01-30T00:33:58.409Z,11.73
2023-01-30T00:37:08.214Z,11.85
2023-01-30T00:40:11.636Z,11.60
2023-01-30T00:43:35.431Z,10.52
2023-01-30T00:47:03.875Z,11.10
2023-01-30T00:50:06.468Z,11.65
2023-01-30T00:53:16.064Z,12.85
2023-01-30T00:56:18.287Z,11.25
2023-01-30T00:59:20.936Z,11.47
2023-01-30T01:02:23.314Z,14.57
2023-01-30T01:05:26.494Z,12.80
2023-01-30T01:08:28.720Z,13.43
2023-01-30T01:11:31.660Z,10.25
2023-01-30T01:14:34.109Z,12.02
2023-01-30T01:17:36.822Z,10.77
2023-01-30T01:20:39.009Z,11.80
2023-01-30T01:23:42.017Z,11.73
2023-01-30T01:26:45.150Z,11.40
2023-01-30T01:32:51.174Z,12.82
2023-01-30T01:35:56.930Z,9.97
2023-01-30T01:38:59.215Z,12.00
2023-01-30T01:42:01.679Z,10.23
2023-01-30T01:45:13.145Z,12.70
2023-01-30T01:48:28.204Z,10.57
2023-01-30T01:51:36.790Z,10.27
2023-01-30T01:54:48.386Z,10.70
2023-01-30T01:57:59.310Z,11.27
2023-01-30T02:01:02.236Z,12.52
2023-01-30T02:04:09.032Z,13.05
2023-01-30T02:07:11.258Z,11.80
2023-01-30T02:10:19.051Z,11.50
2023-01-30T02:13:23.082Z,12.15
2023-01-30T02:16:25.335Z,12.55
2023-01-30T02:19:49.308Z,13.47
2023-01-30T02:23:13.608Z,12.95
2023-01-30T02:26:38.258Z,11.18
2023-01-30T02:30:02.185Z,13.07
2023-01-30T02:33:07.873Z,11.07
2023-01-30T02:36:28.635Z,12.27
2023-01-30T02:40:02.960Z,11.48
2023-01-30T02:43:15.356Z,12.70
2023-01-30T02:46:25.213Z,14.73
2023-01-30T02:49:50.025Z,13.45
2023-01-30T02:52:53.417Z,13.35
2023-01-30T02:55:55.637Z,12.80
2023-01-30T02:59:06.150Z,11.10
2023-01-30T03:02:08.619Z,12.52
2023-01-30T03:05:36.820Z,12.93
2023-01-30T03:09:10.206Z,14.70
2023-01-30T03:12:25.016Z,14.45
2023-01-30T03:15:35.831Z,12.93
2023-01-30T03:18:41.715Z,13.02
2023-01-30T03:21:45.549Z,11.43
2023-01-30T03:24:51.756Z,11.52
2023-01-30T03:27:55.877Z,13.23
2023-01-30T03:30:58.592Z,12.77
2023-01-30T03:34:00.916Z,12.32
2023-01-30T03:37:04.689Z,14.87
2023-01-30T03:40:10.467Z,12.80
2023-01-30T03:43:13.153Z,13.70
2023-01-30T03:46:15.428Z,11.32
2023-01-30T03:49:18.221Z,12.95
2023-01-30T03:52:23.691Z,11.27
2023-01-30T03:55:26.257Z,15.13
2023-01-30T03:58:28.779Z,12.30
2023-01-30T04:01:31.741Z,12.40
2023-01-30T04:04:35.151Z,12.75
2023-01-30T04:10:40.497Z,10.80
2023-01-30T04:13:42.833Z,13.35
2023-01-30T04:16:46.098Z,14.18
2023-01-30T04:19:49.811Z,13.90
2023-01-30T04:22:54.763Z,12.82
2023-01-30T04:25:57.632Z,12.93
2023-01-30T04:29:00.631Z,13.30
2023-01-30T04:32:03.501Z,12.50
2023-01-30T04:35:06.888Z,12.57
2023-01-30T04:38:09.355Z,12.65
2023-01-30T04:41:12.281Z,11.75
2023-01-30T04:44:14.615Z,11.40
2023-01-30T04:47:18.291Z,13.68
2023-01-30T04:50:20.694Z,12.48
2023-01-30T04:53:24.549Z,11.20
2023-01-30T04:56:27.325Z,11.32
2023-01-30T04:59:29.849Z,10.38
2023-01-30T05:02:34.128Z,10.98
2023-01-30T05:05:36.930Z,11.03
2023-01-30T05:08:39.177Z,11.23
2023-01-30T05:11:42.212Z,10.55
2023-01-30T05:14:46.708Z,11.38
2023-01-30T05:17:49.703Z,11.38
2023-01-30T05:20:51.843Z,10.95
2023-01-30T05:23:56.093Z,12.80
2023-01-30T05:26:58.370Z,10.45
2023-01-30T05:30:00.926Z,12.67
2023-01-30T05:33:03.177Z,9.13
2023-01-30T05:36:06.718Z,9.00
2023-01-30T05:39:08.903Z,7.55
2023-01-30T05:42:11.380Z,11.37
2023-01-30T05:45:13.604Z,10.15
2023-01-30T05:48:16.046Z,11.50
2023-01-30T05:51:19.366Z,10.57
2023-01-30T05:54:21.857Z,10.10
2023-01-30T05:57:24.143Z,9.63
2023-01-30T06:00:26.709Z,10.35
2023-01-30T06:03:29.574Z,12.80
2023-01-30T06:06:31.845Z,12.57
2023-01-30T06:09:34.356Z,10.27
2023-01-30T06:12:36.893Z,12.60
2023-01-30T06:15:39.791Z,11.12
2023-01-30T06:18:43.564Z,12.02
2023-01-30T06:21:46.253Z,11.68
2023-01-30T06:24:48.511Z,11.85
2023-01-30T06:27:51.210Z,12.00
2023-01-30T06:30:53.973Z,13.62
2023-01-30T06:33:56.600Z,12.13
2023-01-30T06:36:58.825Z,11.82
2023-01-30T06:40:01.423Z,12.97
2023-01-30T06:43:04.475Z,11.38
2023-01-30T06:46:07.074Z,11.52
2023-01-30T06:49:10.050Z,13.27
2023-01-30T06:52:13.053Z,13.30
2023-01-30T06:55:18.425Z,12.82
2023-01-30T06:58:21.422Z,13.40
2023-01-30T07:01:24.326Z,12.18
2023-01-30T07:04:27.424Z,16.30
2023-01-30T07:07:30.903Z,15.30
2023-01-30T07:10:33.703Z,13.80
2023-01-30T07:13:36.009Z,16.00
2023-01-30T07:16:38.541Z,11.67
2023-01-30T07:19:40.774Z,14.13
2023-01-30T07:22:43.347Z,12.77
2023-01-30T07:25:45.691Z,13.30
2023-01-30T07:28:48.150Z,13.17
2023-01-30T07:31:51.511Z,13.63
2023-01-30T07:37:56.804Z,13.05
2023-01-30T07:41:00.603Z,14.45
2023-01-30T07:44:03.008Z,12.07
2023-01-30T07:47:05.623Z,14.38
2023-01-30T07:50:08.670Z,12.63
2023-01-30T07:53:13.839Z,12.30
2023-01-30T07:56:23.665Z,12.77
2023-01-30T07:59:27.854Z,17.92
2023-01-30T08:02:30.331Z,13.60
2023-01-30T08:05:33.120Z,15.60
2023-01-30T08:08:37.498Z,14.73
2023-01-30T08:11:40.442Z,16.20
2023-01-30T08:14:42.900Z,15.43
2023-01-30T08:17:53.782Z,14.03
2023-01-30T08:21:04.569Z,16.65
2023-01-30T08:24:07.678Z,15.25
2023-01-30T08:27:10.036Z,16.75
2023-01-30T08:30:13.691Z,17.67
2023-01-30T08:33:16.060Z,18.95
2023-01-30T08:36:18.552Z,16.43
2023-01-30T08:39:20.836Z,17.37
2023-01-30T08:42:23.446Z,21.63
2023-01-30T08:45:25.829Z,17.90
2023-01-30T08:48:36.723Z,17.60
2023-01-30T08:51:42.412Z,17.58
2023-01-30T08:54:46.562Z,17.60
2023-01-30T08:57:48.985Z,21.15
2023-01-30T09:00:51.599Z,17.97
2023-01-30T09:03:53.847Z,16.48
2023-01-30T09:06:56.563Z,19.62
2023-01-30T09:09:58.908Z,18.20
2023-01-30T09:13:01.411Z,19.87
2023-01-30T09:16:06.468Z,18.15
2023-01-30T09:19:08.985Z,15.48
2023-01-30T09:22:11.229Z,17.30
2023-01-30T09:25:13.871Z,15.73
2023-01-30T09:28:16.030Z,13.73
2023-01-30T09:31:18.622Z,17.35
2023-01-30T09:34:20.988Z,13.70
2023-01-30T09:37:23.676Z,13.73
2023-01-30T09:40:29.344Z,12.63
2023-01-30T09:43:34.636Z,15.05
2023-01-30T09:46:50.061Z,13.25
2023-01-30T09:50:25.715Z,13.00
2023-01-30T09:53:46.862Z,13.05
2023-01-30T09:56:55.319Z,12.98
2023-01-30T10:00:14.198Z,13.80
2023-01-30T10:03:26.079Z,13.52
2023-01-30T10:06:28.860Z,14.75
2023-01-30T10:09:40.395Z,14.23
2023-01-30T10:12:57.430Z,14.50
2023-01-30T10:16:36.289Z,14.60
2023-01-30T10:20:00.355Z,15.27
2023-01-30T10:23:20.973Z,15.88
2023-01-30T10:26:27.207Z,13.20
2023-01-30T10:30:03.586Z,14.38
2023-01-30T10:33:19.277Z,14.43
2023-01-30T10:36:54.028Z,12.82
2023-01-30T10:40:14.281Z,11.68
2023-01-30T10:43:28.386Z,13.85
2023-01-30T10:46:41.350Z,12.20
2023-01-30T10:49:54.167Z,12.27
2023-01-30T10:53:15.308Z,11.70
2023-01-30T10:56:31.026Z,13.50
2023-01-30T11:00:14.675Z,14.45
2023-01-30T11:03:48.022Z,11.90
2023-01-30T11:06:52.517Z,12.45
2023-01-30T11:09:58.482Z,12.65
2023-01-30T11:13:20.005Z,13.45
2023-01-30T11:16:22.878Z,14.98
2023-01-30T11:19:32.732Z,12.20
2023-01-30T11:22:36.669Z,13.48
2023-01-30T11:25:51.196Z,13.68
2023-01-30T11:28:55.346Z,12.88
2023-01-30T11:32:06.560Z,12.93
2023-01-30T11:35:09.085Z,13.07
2023-01-30T11:38:21.322Z,14.98
2023-01-30T11:41:25.000Z,14.60
2023-01-30T11:44:34.020Z,12.77
2023-01-30T11:47:36.793Z,14.13
2023-01-30T11:50:49.569Z,11.70
2023-01-30T11:54:14.615Z,12.73
2023-01-30T11:57:19.662Z,13.10
2023-01-30T12:00:24.677Z,12.65
2023-01-30T12:03:29.559Z,13.85
2023-01-30T12:06:35.325Z,12.10
2023-01-30T12:09:40.737Z,11.80
2023-01-30T12:12:56.762Z,11.90
2023-01-30T12:16:15.254Z,12.73
2023-01-30T12:19:34.079Z,11.57
2023-01-30T12:22:55.540Z,11.65
2023-01-30T12:26:07.349Z,13.30
2023-01-30T12:29:48.208Z,12.18
2023-01-30T12:36:42.247Z,11.05
2023-01-30T12:39:57.519Z,10.75
2023-01-30T12:43:29.034Z,10.02
2023-01-30T12:47:02.175Z,10.13
2023-01-30T12:50:21.204Z,9.65
2023-01-30T12:53:50.330Z,9.88
2023-01-30T12:57:03.842Z,9.93
2023-01-30T13:00:27.823Z,10.35
2023-01-30T13:04:17.162Z,10.52
2023-01-30T13:07:33.144Z,8.98
2023-01-30T13:10:48.080Z,9.55
2023-01-30T13:13:56.911Z,11.55
2023-01-30T13:17:25.625Z,11.88
2023-01-30T13:20:37.748Z,10.38
2023-01-30T13:24:21.423Z,11.32
2023-01-30T13:27:25.671Z,10.02
2023-01-30T13:30:30.982Z,10.00
2023-01-30T13:33:37.212Z,8.82
2023-01-30T13:36:52.375Z,9.50
2023-01-30T13:39:59.777Z,9.63
2023-01-30T13:43:10.979Z,10.05
2023-01-30T13:46:24.626Z,9.10
2023-01-30T13:49:30.473Z,10.68
2023-01-30T13:52:49.925Z,9.80
2023-01-30T13:56:40.753Z,10.93
2023-01-30T13:59:56.006Z,8.88
2023-01-30T14:03:07.955Z,10.95
2023-01-30T14:06:29.367Z,8.63
2023-01-30T14:09:33.927Z,9.25
2023-01-30T14:12:44.646Z,10.18
2023-01-30T14:15:56.763Z,9.60
2023-01-30T14:18:59.639Z,10.07
2023-01-30T14:22:16.346Z,11.52
2023-01-30T14:25:27.903Z,10.50
2023-01-30T14:28:30.122Z,8.40
2023-01-30T14:31:49.937Z,8.23
2023-01-30T14:35:01.313Z,8.43
2023-01-30T14:38:11.178Z,10.40
2023-01-30T14:41:28.239Z,8.73
2023-01-30T14:44:59.605Z,9.77
2023-01-30T14:48:44.511Z,9.57
2023-01-30T14:51:47.884Z,9.63
2023-01-30T14:54:51.015Z,10.38
2023-01-30T14:58:00.622Z,8.98
2023-01-30T15:01:03.010Z,9.10
2023-01-30T15:04:05.705Z,9.23
2023-01-30T15:07:14.715Z,10.25
2023-01-30T15:10:29.081Z,9.18
2023-01-30T15:13:49.412Z,10.57
2023-01-30T15:17:15.066Z,10.05
2023-01-30T15:20:55.724Z,9.93
2023-01-30T15:24:21.227Z,10.95
2023-01-30T15:27:51.427Z,9.35
2023-01-30T15:31:08.699Z,9.50
2023-01-30T15:34:19.852Z,9.73
2023-01-30T15:37:36.790Z,10.57
2023-01-30T15:40:40.796Z,10.18
2023-01-30T15:44:21.184Z,9.38
2023-01-30T15:47:48.333Z,10.13
2023-01-30T15:50:55.098Z,9.75
2023-01-30T15:53:59.419Z,12.13
2023-01-30T15:57:01.993Z,12.90
2023-01-30T16:00:09.093Z,10.27
2023-01-30T16:03:21.686Z,11.75
2023-01-30T16:06:37.621Z,10.52
2023-01-30T16:09:39.851Z,11.75
2023-01-30T16:12:42.707Z,10.20
2023-01-30T16:16:08.314Z,11.57
2023-01-30T16:19:20.979Z,11.43
2023-01-30T16:22:23.396Z,10.57
2023-01-30T16:25:30.101Z,10.67
2023-01-30T16:28:32.670Z,12.20
2023-01-30T16:31:38.495Z,12.88
2023-01-30T16:34:40.881Z,11.60
2023-01-30T16:37:43.863Z,11.87
2023-01-30T16:40:46.622Z,10.17
2023-01-30T16:44:16.529Z,11.40
2023-01-30T16:47:21.522Z,12.77
2023-01-30T16:50:24.102Z,10.70
2023-01-30T16:56:34.604Z,10.73
2023-01-30T16:59:37.895Z,10.98
2023-01-30T17:05:46.636Z,10.40
2023-01-30T17:08:54.205Z,11.30
2023-01-30T17:11:56.648Z,11.93
2023-01-30T17:15:14.081Z,11.30
2023-01-30T17:18:17.135Z,11.27
2023-01-30T17:21:21.647Z,12.65
2023-01-30T17:24:25.394Z,12.90
2023-01-30T17:27:29.666Z,12.68
2023-01-30T17:30:32.102Z,12.88
2023-01-30T17:33:34.572Z,11.40
2023-01-30T17:36:36.763Z,10.32
2023-01-30T17:39:39.231Z,12.80
2023-01-30T17:42:41.386Z,10.65
2023-01-30T17:45:43.967Z,11.30
2023-01-30T17:48:46.340Z,9.32
2023-01-30T17:51:50.251Z,9.82
2023-01-30T17:57:56.746Z,8.57
2023-01-30T18:00:58.915Z,8.85
2023-01-30T18:04:01.337Z,10.82
2023-01-30T18:07:06.351Z,9.95
2023-01-30T18:10:16.535Z,8.57
2023-01-30T18:13:18.824Z,8.40
2023-01-30T18:16:25.431Z,8.70
2023-01-30T18:19:28.996Z,6.97
2023-01-30T18:22:32.455Z,7.68
2023-01-30T18:25:34.650Z,10.02
2023-01-30T18:28:37.134Z,9.00
2023-01-30T18:31:40.931Z,9.02
2023-01-30T18:34:43.507Z,8.15
2023-01-30T18:37:45.713Z,10.38
2023-01-30T18:40:48.229Z,10.70
2023-01-30T18:43:58.253Z,8.82
2023-01-30T18:47:00.758Z,7.70
2023-01-30T18:50:04.368Z,8.30
2023-01-30T18:53:09.864Z,9.15
2023-01-30T18:56:17.394Z,8.93
2023-01-30T18:59:19.950Z,7.97
2023-01-30T19:02:25.060Z,8.50
2023-01-30T19:05:27.529Z,9.00
2023-01-30T19:08:30.789Z,7.45
2023-01-30T19:11:52.176Z,7.65
2023-01-30T19:14:54.339Z,9.30
2023-01-30T19:17:57.897Z,8.93
2023-01-30T19:21:03.474Z,8.70
2023-01-30T19:24:07.898Z,9.05
2023-01-30T19:27:13.805Z,8.70
2023-01-30T19:30:16.624Z,7.55
2023-01-30T19:33:18.943Z,6.78
2023-01-30T19:36:22.832Z,6.40
2023-01-30T19:42:27.246Z,6.97
2023-01-30T19:45:42.783Z,5.28
2023-01-30T19:48:52.300Z,6.28
2023-01-30T19:51:54.493Z,5.35
2023-01-30T19:54:57.079Z,5.28
2023-01-30T19:57:59.233Z,5.87
2023-01-30T20:01:09.691Z,4.85
2023-01-30T20:04:12.226Z,4.82
2023-01-30T20:07:14.407Z,5.62
2023-01-30T20:10:17.538Z,5.85
2023-01-30T20:13:20.054Z,5.72
2023-01-30T20:16:25.582Z,6.37
2023-01-30T20:19:27.887Z,6.22
2023-01-30T20:22:30.432Z,6.72
2023-01-30T20:25:35.689Z,5.50
2023-01-30T20:28:38.922Z,4.85
2023-01-30T20:31:41.176Z,6.12
2023-01-30T20:34:43.634Z,4.82
2023-01-30T20:37:45.837Z,4.68
2023-01-30T20:40:48.394Z,4.68
2023-01-30T20:43:52.817Z,6.10
2023-01-30T20:46:56.621Z,5.47
2023-01-30T20:53:01.228Z,4.93
2023-01-30T20:56:04.170Z,4.68
2023-01-30T20:59:07.772Z,4.82
2023-01-30T21:02:10.044Z,5.82
2023-01-30T21:05:12.548Z,5.85
2023-01-30T21:08:14.686Z,4.78
2023-01-30T21:11:20.191Z,5.90
2023-01-30T21:14:23.294Z,5.25
2023-01-30T21:17:27.991Z,5.30
2023-01-30T21:23:33.228Z,3.28
2023-01-30T21:26:38.305Z,3.33
2023-01-30T21:29:40.843Z,4.47
2023-01-30T21:32:43.060Z,4.05
2023-01-30T21:35:45.585Z,3.40
2023-01-30T21:39:06.555Z,3.33
2023-01-30T21:42:27.634Z,3.75
2023-01-30T21:45:30.110Z,3.47
2023-01-30T21:48:34.893Z,3.47
2023-01-30T21:51:37.794Z,3.03
2023-01-30T21:54:40.243Z,3.03
2023-01-30T21:57:42.384Z,3.12
2023-01-30T22:00:45.305Z,3.00
2023-01-30T22:03:48.352Z,3.28
2023-01-30T22:06:50.564Z,4.03
2023-01-30T22:09:53.079Z,3.17
2023-01-30T22:12:55.237Z,3.75
2023-01-30T22:16:02.792Z,2.92
2023-01-30T22:19:05.263Z,3.47
2023-01-30T22:22:07.671Z,4.03
2023-01-30T22:25:09.962Z,3.95
2023-01-30T22:28:12.493Z,2.87
2023-01-30T22:31:19.733Z,3.15
2023-01-30T22:34:22.369Z,3.90
2023-01-30T22:37:24.513Z,3.22
2023-01-30T22:40:27.268Z,2.70
2023-01-30T22:43:31.180Z,3.35
2023-01-30T22:46:36.410Z,3.20
2023-01-30T22:49:38.720Z,3.28
2023-01-30T22:52:41.152Z,3.05
2023-01-30T22:55:43.302Z,2.50
2023-01-30T22:58:46.747Z,2.58
2023-01-30T23:01:53.029Z,2.60
2023-01-30T23:04:55.453Z,2.97
2023-01-30T23:07:57.627Z,3.12
2023-01-30T23:11:06.950Z,2.10
2023-01-30T23:14:16.462Z,2.15
2023-01-30T23:17:37.861Z,1.95
2023-01-30T23:20:40.294Z,2.08
2023-01-30T23:23:44.007Z,2.93
2023-01-30T23:26:51.361Z,1.75
2023-01-30T23:29:53.836Z,2.62
2023-01-30T23:32:56.022Z,2.20
2023-01-30T23:36:04.114Z,2.92
2023-01-30T23:39:06.271Z,2.22
2023-01-30T23:42:08.698Z,2.40
2023-01-30T23:45:11.050Z,1.87
2023-01-30T23:48:13.551Z,2.62
2023-01-30T23:51:17.304Z,2.00
2023-01-30T23:54:20.119Z,2.25
2023-01-30T23:57:22.308Z,2.70
